sensor_id;sensor_type;location;lat;lon;timestamp;temperature;humidity
52058;DHT22;38063;53.210;6.504;2024-02-26T00:00:38;3.40;99.90
52058;DHT22;38063;53.210;6.504;2024-02-26T00:03:04;3.30;99.90
52058;DHT22;38063;53.210;6.504;2024-02-26T00:05:30;3.30;99.90
52058;DHT22;38063;53.210;6.504;2024-02-26T00:07:56;3.30;99.90
52058;DHT22;38063;53.210;6.504;2024-02-26T00:10:22;3.30;99.90
52058;DHT22;38063;53.210;6.504;2024-02-26T00:12:48;3.30;99.90
52058;DHT22;38063;53.210;6.504;2024-02-26T00:15:13;3.30;99.90
52058;DHT22;38063;53.210;6.504;2024-02-26T00:17:39;3.30;99.90
52058;DHT22;38063;53.210;6.504;2024-02-26T00:20:06;3.30;99.90
52058;DHT22;38063;53.210;6.504;2024-02-26T00:22:35;3.30;99.90
52058;DHT22;38063;53.210;6.504;2024-02-26T00:25:01;3.20;99.90
52058;DHT22;38063;53.210;6.504;2024-02-26T00:27:26;3.30;99.90
52058;DHT22;38063;53.210;6.504;2024-02-26T00:29:52;3.20;99.90
52058;DHT22;38063;53.210;6.504;2024-02-26T00:32:17;3.20;99.90
52058;DHT22;38063;53.210;6.504;2024-02-26T00:34:43;3.20;99.90
52058;DHT22;38063;53.210;6.504;2024-02-26T00:37:09;3.30;99.90
52058;DHT22;38063;53.210;6.504;2024-02-26T00:39:35;3.30;99.90
52058;DHT22;38063;53.210;6.504;2024-02-26T00:42:00;3.30;99.90
52058;DHT22;38063;53.210;6.504;2024-02-26T00:44:26;3.30;99.90
52058;DHT22;38063;53.210;6.504;2024-02-26T00:46:52;3.30;99.90
52058;DHT22;38063;53.210;6.504;2024-02-26T00:49:17;3.30;99.90
52058;DHT22;38063;53.210;6.504;2024-02-26T00:51:43;3.50;99.90
52058;DHT22;38063;53.210;6.504;2024-02-26T00:54:08;3.30;99.90
52058;DHT22;38063;53.210;6.504;2024-02-26T00:56:34;3.30;99.90
52058;DHT22;38063;53.210;6.504;2024-02-26T00:59:00;3.30;99.90
52058;DHT22;38063;53.210;6.504;2024-02-26T01:01:25;3.40;99.90
52058;DHT22;38063;53.210;6.504;2024-02-26T01:03:51;3.40;99.90
52058;DHT22;38063;53.210;6.504;2024-02-26T01:06:17;3.30;99.90
52058;DHT22;38063;53.210;6.504;2024-02-26T01:08:42;3.30;99.90
52058;DHT22;38063;53.210;6.504;2024-02-26T01:11:08;3.40;99.90
52058;DHT22;38063;53.210;6.504;2024-02-26T01:13:34;3.30;99.90
52058;DHT22;38063;53.210;6.504;2024-02-26T01:15:59;3.30;99.90
52058;DHT22;38063;53.210;6.504;2024-02-26T01:18:26;3.80;99.90
52058;DHT22;38063;53.210;6.504;2024-02-26T01:20:52;3.30;99.90
52058;DHT22;38063;53.210;6.504;2024-02-26T01:23:20;3.60;99.90
52058;DHT22;38063;53.210;6.504;2024-02-26T01:25:46;3.30;99.90
52058;DHT22;38063;53.210;6.504;2024-02-26T01:28:11;3.30;99.90
52058;DHT22;38063;53.210;6.504;2024-02-26T01:30:37;3.30;99.90
52058;DHT22;38063;53.210;6.504;2024-02-26T01:33:03;3.30;99.90
52058;DHT22;38063;53.210;6.504;2024-02-26T01:35:29;3.30;99.90
52058;DHT22;38063;53.210;6.504;2024-02-26T01:37:55;3.30;99.90
52058;DHT22;38063;53.210;6.504;2024-02-26T01:40:22;3.30;99.90
52058;DHT22;38063;53.210;6.504;2024-02-26T01:42:47;3.30;99.90
52058;DHT22;38063;53.210;6.504;2024-02-26T01:45:17;3.30;99.90
52058;DHT22;38063;53.210;6.504;2024-02-26T01:47:52;3.30;99.90
52058;DHT22;38063;53.210;6.504;2024-02-26T01:50:19;3.20;99.90
52058;DHT22;38063;53.210;6.504;2024-02-26T01:52:50;3.30;99.90
52058;DHT22;38063;53.210;6.504;2024-02-26T01:55:18;3.20;99.90
52058;DHT22;38063;53.210;6.504;2024-02-26T01:57:45;3.20;99.90
52058;DHT22;38063;53.210;6.504;2024-02-26T02:00:12;3.20;99.90
52058;DHT22;38063;53.210;6.504;2024-02-26T02:02:39;3.20;99.90
52058;DHT22;38063;53.210;6.504;2024-02-26T02:05:06;3.20;99.90
52058;DHT22;38063;53.210;6.504;2024-02-26T02:07:32;3.20;99.90
52058;DHT22;38063;53.210;6.504;2024-02-26T02:09:58;3.20;99.90
52058;DHT22;38063;53.210;6.504;2024-02-26T02:12:24;3.30;99.90
52058;DHT22;38063;53.210;6.504;2024-02-26T02:14:50;3.20;99.90
52058;DHT22;38063;53.210;6.504;2024-02-26T02:17:16;3.20;99.90
52058;DHT22;38063;53.210;6.504;2024-02-26T02:19:41;3.20;99.90
52058;DHT22;38063;53.210;6.504;2024-02-26T02:22:07;3.20;99.90
52058;DHT22;38063;53.210;6.504;2024-02-26T02:24:33;3.10;99.90
52058;DHT22;38063;53.210;6.504;2024-02-26T02:26:59;3.10;99.90
52058;DHT22;38063;53.210;6.504;2024-02-26T02:29:24;3.10;99.90
52058;DHT22;38063;53.210;6.504;2024-02-26T02:31:50;3.10;99.90
52058;DHT22;38063;53.210;6.504;2024-02-26T02:34:16;3.10;99.90
52058;DHT22;38063;53.210;6.504;2024-02-26T02:36:51;3.10;99.90
52058;DHT22;38063;53.210;6.504;2024-02-26T02:39:17;3.10;99.90
52058;DHT22;38063;53.210;6.504;2024-02-26T02:41:43;3.00;99.90
52058;DHT22;38063;53.210;6.504;2024-02-26T02:44:09;3.00;99.90
52058;DHT22;38063;53.210;6.504;2024-02-26T02:46:35;3.10;99.90
52058;DHT22;38063;53.210;6.504;2024-02-26T02:49:01;3.00;99.90
52058;DHT22;38063;53.210;6.504;2024-02-26T02:51:26;3.00;99.90
52058;DHT22;38063;53.210;6.504;2024-02-26T02:53:52;3.00;99.90
52058;DHT22;38063;53.210;6.504;2024-02-26T02:56:18;3.00;99.90
52058;DHT22;38063;53.210;6.504;2024-02-26T02:58:44;3.00;99.90
52058;DHT22;38063;53.210;6.504;2024-02-26T03:01:09;3.00;99.90
52058;DHT22;38063;53.210;6.504;2024-02-26T03:03:35;3.40;99.90
52058;DHT22;38063;53.210;6.504;2024-02-26T03:06:02;4.00;99.90
52058;DHT22;38063;53.210;6.504;2024-02-26T03:08:29;3.00;99.90
52058;DHT22;38063;53.210;6.504;2024-02-26T03:10:55;3.00;99.90
52058;DHT22;38063;53.210;6.504;2024-02-26T03:13:21;3.00;99.90
52058;DHT22;38063;53.210;6.504;2024-02-26T03:15:46;3.00;99.90
52058;DHT22;38063;53.210;6.504;2024-02-26T03:18:12;3.00;99.90
52058;DHT22;38063;53.210;6.504;2024-02-26T03:20:38;3.50;99.90
52058;DHT22;38063;53.210;6.504;2024-02-26T03:23:04;3.00;99.90
52058;DHT22;38063;53.210;6.504;2024-02-26T03:25:29;2.90;99.90
52058;DHT22;38063;53.210;6.504;2024-02-26T03:27:55;3.00;99.90
52058;DHT22;38063;53.210;6.504;2024-02-26T03:30:21;3.00;99.90
52058;DHT22;38063;53.210;6.504;2024-02-26T03:32:46;3.00;99.90
52058;DHT22;38063;53.210;6.504;2024-02-26T03:35:13;3.00;99.90
52058;DHT22;38063;53.210;6.504;2024-02-26T03:37:39;3.10;99.90
52058;DHT22;38063;53.210;6.504;2024-02-26T03:40:05;3.00;99.90
52058;DHT22;38063;53.210;6.504;2024-02-26T03:42:31;3.00;99.90
52058;DHT22;38063;53.210;6.504;2024-02-26T03:44:57;3.00;99.90
52058;DHT22;38063;53.210;6.504;2024-02-26T03:47:22;3.00;99.90
52058;DHT22;38063;53.210;6.504;2024-02-26T03:49:48;3.00;99.90
52058;DHT22;38063;53.210;6.504;2024-02-26T03:52:14;3.00;99.90
52058;DHT22;38063;53.210;6.504;2024-02-26T03:54:40;3.00;99.90
52058;DHT22;38063;53.210;6.504;2024-02-26T03:57:06;3.00;99.90
52058;DHT22;38063;53.210;6.504;2024-02-26T03:59:31;3.00;99.90
52058;DHT22;38063;53.210;6.504;2024-02-26T04:01:57;3.00;99.90
52058;DHT22;38063;53.210;6.504;2024-02-26T04:04:23;3.00;99.90
52058;DHT22;38063;53.210;6.504;2024-02-26T04:06:48;3.00;99.90
52058;DHT22;38063;53.210;6.504;2024-02-26T04:09:14;3.40;99.90
52058;DHT22;38063;53.210;6.504;2024-02-26T04:11:40;3.00;99.90
52058;DHT22;38063;53.210;6.504;2024-02-26T04:14:06;3.90;99.90
52058;DHT22;38063;53.210;6.504;2024-02-26T04:16:34;3.20;99.90
52058;DHT22;38063;53.210;6.504;2024-02-26T04:19:01;3.00;99.90
52058;DHT22;38063;53.210;6.504;2024-02-26T04:21:27;3.00;99.90
52058;DHT22;38063;53.210;6.504;2024-02-26T04:23:52;3.00;99.90
52058;DHT22;38063;53.210;6.504;2024-02-26T04:26:20;3.00;99.90
52058;DHT22;38063;53.210;6.504;2024-02-26T04:28:47;3.10;99.90
52058;DHT22;38063;53.210;6.504;2024-02-26T04:31:12;3.10;99.90
52058;DHT22;38063;53.210;6.504;2024-02-26T04:33:38;3.10;99.90
52058;DHT22;38063;53.210;6.504;2024-02-26T04:36:04;3.10;99.90
52058;DHT22;38063;53.210;6.504;2024-02-26T04:38:30;3.10;99.90
52058;DHT22;38063;53.210;6.504;2024-02-26T04:40:55;3.10;99.90
52058;DHT22;38063;53.210;6.504;2024-02-26T04:43:21;3.10;99.90
52058;DHT22;38063;53.210;6.504;2024-02-26T04:45:46;3.10;99.90
52058;DHT22;38063;53.210;6.504;2024-02-26T04:48:13;3.60;99.90
52058;DHT22;38063;53.210;6.504;2024-02-26T04:50:39;3.10;99.90
52058;DHT22;38063;53.210;6.504;2024-02-26T04:53:04;3.20;99.90
52058;DHT22;38063;53.210;6.504;2024-02-26T04:55:30;3.20;99.90
52058;DHT22;38063;53.210;6.504;2024-02-26T04:57:56;3.20;99.90
52058;DHT22;38063;53.210;6.504;2024-02-26T05:00:21;3.20;99.90
52058;DHT22;38063;53.210;6.504;2024-02-26T05:02:47;3.20;99.90
52058;DHT22;38063;53.210;6.504;2024-02-26T05:05:13;3.20;99.90
52058;DHT22;38063;53.210;6.504;2024-02-26T05:07:42;3.10;99.90
52058;DHT22;38063;53.210;6.504;2024-02-26T05:10:09;3.20;99.90
52058;DHT22;38063;53.210;6.504;2024-02-26T05:12:35;3.20;99.90
52058;DHT22;38063;53.210;6.504;2024-02-26T05:15:02;3.20;99.90
52058;DHT22;38063;53.210;6.504;2024-02-26T05:17:27;3.20;99.90
52058;DHT22;38063;53.210;6.504;2024-02-26T05:19:53;3.10;99.90
52058;DHT22;38063;53.210;6.504;2024-02-26T05:22:19;3.10;99.90
52058;DHT22;38063;53.210;6.504;2024-02-26T05:24:45;3.20;99.90
52058;DHT22;38063;53.210;6.504;2024-02-26T05:27:11;3.10;99.90
52058;DHT22;38063;53.210;6.504;2024-02-26T05:29:37;3.10;99.90
52058;DHT22;38063;53.210;6.504;2024-02-26T05:32:04;3.20;99.90
52058;DHT22;38063;53.210;6.504;2024-02-26T05:34:30;3.20;99.90
52058;DHT22;38063;53.210;6.504;2024-02-26T05:36:56;3.10;99.90
52058;DHT22;38063;53.210;6.504;2024-02-26T05:39:22;3.20;99.90
52058;DHT22;38063;53.210;6.504;2024-02-26T05:41:48;3.10;99.90
52058;DHT22;38063;53.210;6.504;2024-02-26T05:44:15;3.20;99.90
52058;DHT22;38063;53.210;6.504;2024-02-26T05:46:41;3.20;99.90
52058;DHT22;38063;53.210;6.504;2024-02-26T05:49:07;3.20;99.90
52058;DHT22;38063;53.210;6.504;2024-02-26T05:51:33;3.30;99.90
52058;DHT22;38063;53.210;6.504;2024-02-26T05:53:59;3.20;99.90
52058;DHT22;38063;53.210;6.504;2024-02-26T05:56:24;3.80;99.90
52058;DHT22;38063;53.210;6.504;2024-02-26T05:58:50;3.20;99.90
52058;DHT22;38063;53.210;6.504;2024-02-26T06:01:17;3.20;99.90
52058;DHT22;38063;53.210;6.504;2024-02-26T06:03:43;3.20;99.90
52058;DHT22;38063;53.210;6.504;2024-02-26T06:06:10;3.20;99.90
52058;DHT22;38063;53.210;6.504;2024-02-26T06:08:36;3.30;99.90
52058;DHT22;38063;53.210;6.504;2024-02-26T06:11:05;3.30;99.90
52058;DHT22;38063;53.210;6.504;2024-02-26T06:13:32;3.30;99.90
52058;DHT22;38063;53.210;6.504;2024-02-26T06:15:58;3.50;99.90
52058;DHT22;38063;53.210;6.504;2024-02-26T06:18:23;3.30;99.90
52058;DHT22;38063;53.210;6.504;2024-02-26T06:20:49;3.30;99.90
52058;DHT22;38063;53.210;6.504;2024-02-26T06:23:15;3.30;99.90
52058;DHT22;38063;53.210;6.504;2024-02-26T06:25:41;3.30;99.90
52058;DHT22;38063;53.210;6.504;2024-02-26T06:28:08;3.30;99.90
52058;DHT22;38063;53.210;6.504;2024-02-26T06:30:34;3.30;99.90
52058;DHT22;38063;53.210;6.504;2024-02-26T06:32:59;3.50;99.90
52058;DHT22;38063;53.210;6.504;2024-02-26T06:35:26;3.30;99.90
52058;DHT22;38063;53.210;6.504;2024-02-26T06:37:52;3.40;99.90
52058;DHT22;38063;53.210;6.504;2024-02-26T06:40:19;3.40;99.90
52058;DHT22;38063;53.210;6.504;2024-02-26T06:42:44;4.00;99.90
52058;DHT22;38063;53.210;6.504;2024-02-26T06:45:10;3.40;99.90
52058;DHT22;38063;53.210;6.504;2024-02-26T06:47:36;3.40;99.90
52058;DHT22;38063;53.210;6.504;2024-02-26T06:50:02;3.40;99.90
52058;DHT22;38063;53.210;6.504;2024-02-26T06:52:27;3.40;99.90
52058;DHT22;38063;53.210;6.504;2024-02-26T06:54:53;3.40;99.90
52058;DHT22;38063;53.210;6.504;2024-02-26T06:57:20;3.40;99.90
52058;DHT22;38063;53.210;6.504;2024-02-26T06:59:45;3.50;99.90
52058;DHT22;38063;53.210;6.504;2024-02-26T07:02:13;3.40;99.90
52058;DHT22;38063;53.210;6.504;2024-02-26T07:04:39;3.50;99.90
52058;DHT22;38063;53.210;6.504;2024-02-26T07:07:05;3.50;99.90
52058;DHT22;38063;53.210;6.504;2024-02-26T07:09:30;3.50;99.90
52058;DHT22;38063;53.210;6.504;2024-02-26T07:11:56;3.50;99.90
52058;DHT22;38063;53.210;6.504;2024-02-26T07:14:22;3.50;99.90
52058;DHT22;38063;53.210;6.504;2024-02-26T07:16:50;3.50;99.90
52058;DHT22;38063;53.210;6.504;2024-02-26T07:19:15;3.50;99.90
52058;DHT22;38063;53.210;6.504;2024-02-26T07:21:41;3.50;99.90
52058;DHT22;38063;53.210;6.504;2024-02-26T07:24:07;3.50;99.90
52058;DHT22;38063;53.210;6.504;2024-02-26T07:26:32;3.50;99.90
52058;DHT22;38063;53.210;6.504;2024-02-26T07:28:58;3.50;99.90
52058;DHT22;38063;53.210;6.504;2024-02-26T07:31:24;3.50;99.90
52058;DHT22;38063;53.210;6.504;2024-02-26T07:33:49;3.50;99.90
52058;DHT22;38063;53.210;6.504;2024-02-26T07:36:15;3.60;99.90
52058;DHT22;38063;53.210;6.504;2024-02-26T07:38:41;3.60;99.90
52058;DHT22;38063;53.210;6.504;2024-02-26T07:41:06;3.60;99.90
52058;DHT22;38063;53.210;6.504;2024-02-26T07:43:32;3.60;99.90
52058;DHT22;38063;53.210;6.504;2024-02-26T07:45:57;3.60;99.90
52058;DHT22;38063;53.210;6.504;2024-02-26T07:48:23;3.60;99.90
52058;DHT22;38063;53.210;6.504;2024-02-26T07:50:49;3.60;99.90
52058;DHT22;38063;53.210;6.504;2024-02-26T07:53:15;3.60;99.90
52058;DHT22;38063;53.210;6.504;2024-02-26T07:55:40;3.60;99.90
52058;DHT22;38063;53.210;6.504;2024-02-26T07:58:06;3.70;99.90
52058;DHT22;38063;53.210;6.504;2024-02-26T08:00:32;3.70;99.90
52058;DHT22;38063;53.210;6.504;2024-02-26T08:02:57;3.60;99.90
52058;DHT22;38063;53.210;6.504;2024-02-26T08:05:23;3.70;99.90
52058;DHT22;38063;53.210;6.504;2024-02-26T08:07:50;3.80;99.90
52058;DHT22;38063;53.210;6.504;2024-02-26T08:10:16;3.70;99.90
52058;DHT22;38063;53.210;6.504;2024-02-26T08:12:41;3.70;99.90
52058;DHT22;38063;53.210;6.504;2024-02-26T08:15:08;3.80;99.90
52058;DHT22;38063;53.210;6.504;2024-02-26T08:17:33;3.80;99.90
52058;DHT22;38063;53.210;6.504;2024-02-26T08:20:00;3.80;99.90
52058;DHT22;38063;53.210;6.504;2024-02-26T08:22:25;3.80;99.90
52058;DHT22;38063;53.210;6.504;2024-02-26T08:24:51;3.80;99.90
52058;DHT22;38063;53.210;6.504;2024-02-26T08:27:17;3.90;99.90
52058;DHT22;38063;53.210;6.504;2024-02-26T08:29:43;3.90;99.90
52058;DHT22;38063;53.210;6.504;2024-02-26T08:32:08;3.90;99.90
52058;DHT22;38063;53.210;6.504;2024-02-26T08:34:34;3.90;99.90
52058;DHT22;38063;53.210;6.504;2024-02-26T08:37:00;4.30;99.90
52058;DHT22;38063;53.210;6.504;2024-02-26T08:39:25;4.00;99.90
52058;DHT22;38063;53.210;6.504;2024-02-26T08:41:51;4.00;99.90
52058;DHT22;38063;53.210;6.504;2024-02-26T08:44:17;4.70;99.90
52058;DHT22;38063;53.210;6.504;2024-02-26T08:46:43;4.20;99.90
52058;DHT22;38063;53.210;6.504;2024-02-26T08:49:09;4.00;99.90
52058;DHT22;38063;53.210;6.504;2024-02-26T08:51:34;4.00;99.90
52058;DHT22;38063;53.210;6.504;2024-02-26T08:54:00;4.10;99.90
52058;DHT22;38063;53.210;6.504;2024-02-26T08:56:26;4.10;99.90
52058;DHT22;38063;53.210;6.504;2024-02-26T08:58:52;4.10;99.90
52058;DHT22;38063;53.210;6.504;2024-02-26T09:01:20;4.20;99.90
52058;DHT22;38063;53.210;6.504;2024-02-26T09:03:45;4.20;99.90
52058;DHT22;38063;53.210;6.504;2024-02-26T09:06:11;4.20;99.90
52058;DHT22;38063;53.210;6.504;2024-02-26T09:08:39;4.20;99.90
52058;DHT22;38063;53.210;6.504;2024-02-26T09:11:05;4.30;99.90
52058;DHT22;38063;53.210;6.504;2024-02-26T09:13:31;4.30;99.90
52058;DHT22;38063;53.210;6.504;2024-02-26T09:15:56;4.30;99.90
52058;DHT22;38063;53.210;6.504;2024-02-26T09:18:22;4.30;99.90
52058;DHT22;38063;53.210;6.504;2024-02-26T09:20:48;4.40;99.90
52058;DHT22;38063;53.210;6.504;2024-02-26T09:23:13;4.40;99.90
52058;DHT22;38063;53.210;6.504;2024-02-26T09:25:39;4.40;99.90
52058;DHT22;38063;53.210;6.504;2024-02-26T09:28:05;4.40;99.90
52058;DHT22;38063;53.210;6.504;2024-02-26T09:30:31;4.40;99.90
52058;DHT22;38063;53.210;6.504;2024-02-26T09:32:57;4.50;99.90
52058;DHT22;38063;53.210;6.504;2024-02-26T09:35:22;4.90;99.90
52058;DHT22;38063;53.210;6.504;2024-02-26T09:37:48;4.50;99.90
52058;DHT22;38063;53.210;6.504;2024-02-26T09:40:15;4.50;99.90
52058;DHT22;38063;53.210;6.504;2024-02-26T09:42:45;4.60;99.90
52058;DHT22;38063;53.210;6.504;2024-02-26T09:45:18;4.60;99.90
52058;DHT22;38063;53.210;6.504;2024-02-26T09:47:45;4.60;99.90
52058;DHT22;38063;53.210;6.504;2024-02-26T09:50:13;4.70;99.90
52058;DHT22;38063;53.210;6.504;2024-02-26T09:52:41;4.70;99.90
52058;DHT22;38063;53.210;6.504;2024-02-26T09:55:08;4.70;99.90
52058;DHT22;38063;53.210;6.504;2024-02-26T09:57:37;4.70;99.90
52058;DHT22;38063;53.210;6.504;2024-02-26T10:00:04;4.70;99.90
52058;DHT22;38063;53.210;6.504;2024-02-26T10:02:36;4.80;99.90
52058;DHT22;38063;53.210;6.504;2024-02-26T10:05:04;4.80;99.90
52058;DHT22;38063;53.210;6.504;2024-02-26T10:07:33;4.80;99.90
52058;DHT22;38063;53.210;6.504;2024-02-26T10:09:59;4.80;99.90
52058;DHT22;38063;53.210;6.504;2024-02-26T10:12:26;4.80;99.90
52058;DHT22;38063;53.210;6.504;2024-02-26T10:14:53;4.80;99.90
52058;DHT22;38063;53.210;6.504;2024-02-26T10:17:20;4.90;99.90
52058;DHT22;38063;53.210;6.504;2024-02-26T10:19:46;4.80;99.90
52058;DHT22;38063;53.210;6.504;2024-02-26T10:22:11;4.90;99.90
52058;DHT22;38063;53.210;6.504;2024-02-26T10:24:37;4.90;99.90
52058;DHT22;38063;53.210;6.504;2024-02-26T10:27:03;4.90;99.90
52058;DHT22;38063;53.210;6.504;2024-02-26T10:29:28;4.90;99.90
52058;DHT22;38063;53.210;6.504;2024-02-26T10:31:54;5.00;99.90
52058;DHT22;38063;53.210;6.504;2024-02-26T10:34:20;5.00;99.90
52058;DHT22;38063;53.210;6.504;2024-02-26T10:36:46;5.00;99.90
52058;DHT22;38063;53.210;6.504;2024-02-26T10:39:12;5.00;99.90
52058;DHT22;38063;53.210;6.504;2024-02-26T10:41:42;5.00;99.90
52058;DHT22;38063;53.210;6.504;2024-02-26T10:44:12;5.00;99.90
52058;DHT22;38063;53.210;6.504;2024-02-26T10:46:41;5.00;99.90
52058;DHT22;38063;53.210;6.504;2024-02-26T10:49:14;5.00;99.90
52058;DHT22;38063;53.210;6.504;2024-02-26T10:51:44;5.00;99.90
52058;DHT22;38063;53.210;6.504;2024-02-26T10:54:15;5.10;99.90
52058;DHT22;38063;53.210;6.504;2024-02-26T10:56:42;5.10;99.90
52058;DHT22;38063;53.210;6.504;2024-02-26T10:59:09;5.10;99.90
52058;DHT22;38063;53.210;6.504;2024-02-26T11:01:36;5.20;99.90
52058;DHT22;38063;53.210;6.504;2024-02-26T11:04:06;5.30;99.90
52058;DHT22;38063;53.210;6.504;2024-02-26T11:06:34;5.20;99.90
52058;DHT22;38063;53.210;6.504;2024-02-26T11:09:01;5.20;99.90
52058;DHT22;38063;53.210;6.504;2024-02-26T11:11:29;5.30;99.90
52058;DHT22;38063;53.210;6.504;2024-02-26T11:13:56;5.20;99.90
52058;DHT22;38063;53.210;6.504;2024-02-26T11:16:22;5.20;99.90
52058;DHT22;38063;53.210;6.504;2024-02-26T11:18:48;5.20;99.90
52058;DHT22;38063;53.210;6.504;2024-02-26T11:21:18;5.20;99.90
52058;DHT22;38063;53.210;6.504;2024-02-26T11:23:47;5.30;99.90
52058;DHT22;38063;53.210;6.504;2024-02-26T11:26:15;5.30;99.90
52058;DHT22;38063;53.210;6.504;2024-02-26T11:28:42;5.30;99.90
52058;DHT22;38063;53.210;6.504;2024-02-26T11:31:08;5.30;99.90
52058;DHT22;38063;53.210;6.504;2024-02-26T11:33:35;5.40;99.90
52058;DHT22;38063;53.210;6.504;2024-02-26T11:36:02;5.30;99.90
52058;DHT22;38063;53.210;6.504;2024-02-26T11:38:33;5.30;99.90
52058;DHT22;38063;53.210;6.504;2024-02-26T11:40:58;5.30;99.90
52058;DHT22;38063;53.210;6.504;2024-02-26T11:43:50;5.30;99.90
52058;DHT22;38063;53.210;6.504;2024-02-26T11:46:41;5.30;99.90
52058;DHT22;38063;53.210;6.504;2024-02-26T11:51:57;5.40;99.90
52058;DHT22;38063;53.210;6.504;2024-02-26T11:54:51;5.40;99.90
52058;DHT22;38063;53.210;6.504;2024-02-26T12:05:18;5.50;99.90
52058;DHT22;38063;53.210;6.504;2024-02-26T12:07:47;5.60;99.90
52058;DHT22;38063;53.210;6.504;2024-02-26T12:12:41;6.00;99.90
52058;DHT22;38063;53.210;6.504;2024-02-26T12:15:08;5.50;99.90
52058;DHT22;38063;53.210;6.504;2024-02-26T12:17:34;5.60;99.90
52058;DHT22;38063;53.210;6.504;2024-02-26T12:20:13;5.50;99.90
52058;DHT22;38063;53.210;6.504;2024-02-26T12:22:45;5.50;99.90
52058;DHT22;38063;53.210;6.504;2024-02-26T12:25:11;5.80;99.90
52058;DHT22;38063;53.210;6.504;2024-02-26T12:27:36;5.50;99.90
52058;DHT22;38063;53.210;6.504;2024-02-26T12:30:05;5.40;99.90
52058;DHT22;38063;53.210;6.504;2024-02-26T12:32:32;5.40;99.90
52058;DHT22;38063;53.210;6.504;2024-02-26T12:34:58;5.40;99.90
52058;DHT22;38063;53.210;6.504;2024-02-26T12:37:26;5.40;99.90
52058;DHT22;38063;53.210;6.504;2024-02-26T12:39:53;5.40;99.90
52058;DHT22;38063;53.210;6.504;2024-02-26T12:42:18;5.40;99.90
52058;DHT22;38063;53.210;6.504;2024-02-26T12:44:47;5.30;99.90
52058;DHT22;38063;53.210;6.504;2024-02-26T12:47:13;5.30;99.90
52058;DHT22;38063;53.210;6.504;2024-02-26T12:49:47;5.30;99.90
52058;DHT22;38063;53.210;6.504;2024-02-26T12:52:14;5.30;99.90
52058;DHT22;38063;53.210;6.504;2024-02-26T12:54:40;5.30;99.90
52058;DHT22;38063;53.210;6.504;2024-02-26T12:57:08;5.30;99.90
52058;DHT22;38063;53.210;6.504;2024-02-26T12:59:35;5.30;99.90
52058;DHT22;38063;53.210;6.504;2024-02-26T13:02:02;5.20;99.90
52058;DHT22;38063;53.210;6.504;2024-02-26T13:04:29;5.30;99.90
52058;DHT22;38063;53.210;6.504;2024-02-26T13:06:56;6.00;99.90
52058;DHT22;38063;53.210;6.504;2024-02-26T13:09:26;5.30;99.90
52058;DHT22;38063;53.210;6.504;2024-02-26T13:11:55;5.30;99.90
52058;DHT22;38063;53.210;6.504;2024-02-26T13:14:21;5.30;99.90
52058;DHT22;38063;53.210;6.504;2024-02-26T13:16:57;5.30;99.90
52058;DHT22;38063;53.210;6.504;2024-02-26T13:19:23;5.30;99.90
52058;DHT22;38063;53.210;6.504;2024-02-26T13:21:49;5.20;99.90
52058;DHT22;38063;53.210;6.504;2024-02-26T13:24:15;5.30;99.90
52058;DHT22;38063;53.210;6.504;2024-02-26T13:26:41;5.20;99.90
52058;DHT22;38063;53.210;6.504;2024-02-26T13:29:06;5.20;99.90
52058;DHT22;38063;53.210;6.504;2024-02-26T13:31:39;5.20;99.90
52058;DHT22;38063;53.210;6.504;2024-02-26T13:34:05;5.20;99.90
52058;DHT22;38063;53.210;6.504;2024-02-26T13:36:31;5.20;99.90
52058;DHT22;38063;53.210;6.504;2024-02-26T13:38:56;5.20;99.90
52058;DHT22;38063;53.210;6.504;2024-02-26T13:41:22;5.20;99.90
52058;DHT22;38063;53.210;6.504;2024-02-26T13:43:48;5.20;99.90
52058;DHT22;38063;53.210;6.504;2024-02-26T13:46:15;5.20;99.90
52058;DHT22;38063;53.210;6.504;2024-02-26T13:48:41;5.30;99.90
52058;DHT22;38063;53.210;6.504;2024-02-26T13:51:07;5.70;99.90
52058;DHT22;38063;53.210;6.504;2024-02-26T13:53:33;5.20;99.90
52058;DHT22;38063;53.210;6.504;2024-02-26T13:55:58;5.20;99.90
52058;DHT22;38063;53.210;6.504;2024-02-26T13:58:26;5.20;99.90
52058;DHT22;38063;53.210;6.504;2024-02-26T14:00:53;5.20;99.90
52058;DHT22;38063;53.210;6.504;2024-02-26T14:03:19;5.30;99.90
52058;DHT22;38063;53.210;6.504;2024-02-26T14:05:45;5.20;99.90
52058;DHT22;38063;53.210;6.504;2024-02-26T14:08:11;5.20;99.90
52058;DHT22;38063;53.210;6.504;2024-02-26T14:10:37;5.20;99.90
52058;DHT22;38063;53.210;6.504;2024-02-26T14:13:03;5.20;99.90
52058;DHT22;38063;53.210;6.504;2024-02-26T14:15:29;5.20;99.90
52058;DHT22;38063;53.210;6.504;2024-02-26T14:17:55;5.20;99.90
52058;DHT22;38063;53.210;6.504;2024-02-26T14:20:24;5.10;99.90
52058;DHT22;38063;53.210;6.504;2024-02-26T14:22:51;5.10;99.90
52058;DHT22;38063;53.210;6.504;2024-02-26T14:25:21;5.10;99.90
52058;DHT22;38063;53.210;6.504;2024-02-26T14:27:48;5.10;99.90
52058;DHT22;38063;53.210;6.504;2024-02-26T14:30:14;5.10;99.90
52058;DHT22;38063;53.210;6.504;2024-02-26T14:32:40;5.00;99.90
52058;DHT22;38063;53.210;6.504;2024-02-26T14:35:07;5.00;99.90
52058;DHT22;38063;53.210;6.504;2024-02-26T14:37:33;5.00;99.90
52058;DHT22;38063;53.210;6.504;2024-02-26T14:39:58;5.00;99.90
52058;DHT22;38063;53.210;6.504;2024-02-26T14:42:24;5.00;99.90
52058;DHT22;38063;53.210;6.504;2024-02-26T14:44:50;5.00;99.90
52058;DHT22;38063;53.210;6.504;2024-02-26T14:47:16;5.10;99.90
52058;DHT22;38063;53.210;6.504;2024-02-26T14:49:42;5.00;99.90
52058;DHT22;38063;53.210;6.504;2024-02-26T14:52:08;5.00;99.90
52058;DHT22;38063;53.210;6.504;2024-02-26T14:54:34;5.00;99.90
52058;DHT22;38063;53.210;6.504;2024-02-26T14:57:04;5.00;99.90
52058;DHT22;38063;53.210;6.504;2024-02-26T14:59:31;5.00;99.90
52058;DHT22;38063;53.210;6.504;2024-02-26T15:01:57;5.00;99.90
52058;DHT22;38063;53.210;6.504;2024-02-26T15:04:23;5.00;99.90
52058;DHT22;38063;53.210;6.504;2024-02-26T15:06:48;5.00;99.90
52058;DHT22;38063;53.210;6.504;2024-02-26T15:09:14;5.00;99.90
52058;DHT22;38063;53.210;6.504;2024-02-26T15:11:40;5.00;99.90
52058;DHT22;38063;53.210;6.504;2024-02-26T15:14:07;4.90;99.90
52058;DHT22;38063;53.210;6.504;2024-02-26T15:16:32;5.00;99.90
52058;DHT22;38063;53.210;6.504;2024-02-26T15:18:58;5.00;99.90
52058;DHT22;38063;53.210;6.504;2024-02-26T15:21:24;5.00;99.90
52058;DHT22;38063;53.210;6.504;2024-02-26T15:23:49;5.00;99.90
52058;DHT22;38063;53.210;6.504;2024-02-26T15:26:17;5.00;99.90
52058;DHT22;38063;53.210;6.504;2024-02-26T15:28:43;5.00;99.90
52058;DHT22;38063;53.210;6.504;2024-02-26T15:31:09;5.00;99.90
52058;DHT22;38063;53.210;6.504;2024-02-26T15:33:34;5.00;99.90
52058;DHT22;38063;53.210;6.504;2024-02-26T15:36:00;5.00;99.90
52058;DHT22;38063;53.210;6.504;2024-02-26T15:38:25;5.00;99.90
52058;DHT22;38063;53.210;6.504;2024-02-26T15:40:52;5.00;99.90
52058;DHT22;38063;53.210;6.504;2024-02-26T15:43:18;4.90;99.90
52058;DHT22;38063;53.210;6.504;2024-02-26T15:45:47;4.90;99.90
52058;DHT22;38063;53.210;6.504;2024-02-26T15:48:13;4.90;99.90
52058;DHT22;38063;53.210;6.504;2024-02-26T15:50:39;4.90;99.90
52058;DHT22;38063;53.210;6.504;2024-02-26T15:53:07;4.90;99.90